Time;durP1;ratioP1;P1;durP2;ratioP2;P2;SDS_P1;SDS_P2;PMS_P1;PMS_P2;Temp;Humidity;BMP_temperature;BMP_pressure;BME280_temperature;BME280_humidity;BME280_pressure;Samples;Min_cycle;Max_cycle;Signal;HPM_P1;HPM_P2
2022/07/22 00:00:15;;;;;;;12.45;5.07;;;;;;;;;;5097250;28;20438;-84
2022/07/22 00:02:41;;;;;;;11.75;4.75;;;;;;;;;;5097635;28;20035;-84
2022/07/22 00:05:10;;;;;;;14.02;4.95;;;;;;;;;;5097428;28;20024;-84
2022/07/22 00:07:36;;;;;;;12.57;5.13;;;;;;;;;;5097391;28;20311;-84
2022/07/22 00:10:03;;;;;;;12.55;5.10;;;;;;;;;;5097327;28;20526;-83
2022/07/22 00:12:29;;;;;;;15.65;5.13;;;;;;;;;;5097612;28;20028;-84
2022/07/22 00:14:55;;;;;;;13.30;4.80;;;;;;;;;;5084140;28;20024;-84
2022/07/22 00:17:21;;;;;;;17.38;5.35;;;;;;;;;;5076994;28;20025;-84
2022/07/22 00:19:47;;;;;;;10.18;5.32;;;;;;;;;;5076980;28;20025;-84
2022/07/22 00:22:13;;;;;;;10.73;5.53;;;;;;;;;;5077343;28;20032;-84
2022/07/22 00:24:39;;;;;;;16.67;5.68;;;;;;;;;;5077204;28;20150;-84
2022/07/22 00:27:05;;;;;;;12.70;5.25;;;;;;;;;;5076990;28;20426;-84
2022/07/22 00:29:31;;;;;;;12.55;5.18;;;;;;;;;;5075971;28;20028;-84
2022/07/22 00:31:57;;;;;;;14.20;5.40;;;;;;;;;;5076925;28;20406;-84
2022/07/22 00:34:23;;;;;;;15.90;5.85;;;;;;;;;;5076923;28;20033;-84
2022/07/22 00:36:49;;;;;;;15.88;5.38;;;;;;;;;;5075861;28;20038;-84
2022/07/22 00:39:15;;;;;;;16.85;5.05;;;;;;;;;;5077011;28;20038;-84
2022/07/22 00:41:41;;;;;;;13.82;5.72;;;;;;;;;;5077096;28;20031;-84
2022/07/22 00:44:08;;;;;;;11.02;5.13;;;;;;;;;;5075628;28;20059;-84
2022/07/22 00:46:34;;;;;;;13.15;5.18;;;;;;;;;;5076923;28;20028;-84
2022/07/22 00:49:01;;;;;;;13.50;5.25;;;;;;;;;;5077037;28;20085;-84
2022/07/22 00:51:29;;;;;;;15.23;5.78;;;;;;;;;;5078486;28;20076;-84
2022/07/22 00:53:56;;;;;;;11.57;4.97;;;;;;;;;;5080687;28;20056;-84
2022/07/22 00:56:23;;;;;;;9.52;5.05;;;;;;;;;;5079553;28;20062;-84
2022/07/22 00:58:50;;;;;;;10.52;4.90;;;;;;;;;;5080517;28;20013;-84
2022/07/22 01:01:16;;;;;;;12.73;5.20;;;;;;;;;;5079577;28;20025;-84
2022/07/22 01:03:42;;;;;;;9.85;5.32;;;;;;;;;;5080375;28;20403;-84
2022/07/22 01:06:09;;;;;;;12.23;6.15;;;;;;;;;;5080678;28;20029;-85
2022/07/22 01:08:35;;;;;;;12.45;5.35;;;;;;;;;;5080218;28;20357;-84
2022/07/22 01:11:27;;;;;;;17.92;6.60;;;;;;;;;;5080434;28;20021;-85
2022/07/22 01:13:54;;;;;;;12.60;6.00;;;;;;;;;;5077153;28;20032;-84
2022/07/22 01:16:20;;;;;;;11.73;6.32;;;;;;;;;;5080330;28;20094;-84
2022/07/22 01:18:46;;;;;;;16.73;5.78;;;;;;;;;;5081546;28;20429;-84
2022/07/22 01:21:14;;;;;;;11.90;5.57;;;;;;;;;;5100359;28;20028;-84
2022/07/22 01:23:40;;;;;;;9.25;5.43;;;;;;;;;;5100438;28;20028;-85
2022/07/22 01:26:06;;;;;;;13.00;6.63;;;;;;;;;;5100395;28;20074;-85
2022/07/22 01:28:33;;;;;;;11.55;5.95;;;;;;;;;;5100115;28;20024;-84
2022/07/22 01:30:59;;;;;;;9.07;5.05;;;;;;;;;;5100371;28;20321;-84
2022/07/22 01:33:25;;;;;;;9.57;5.03;;;;;;;;;;5100048;28;20059;-84
2022/07/22 01:35:52;;;;;;;14.48;5.22;;;;;;;;;;5100429;28;20024;-84
2022/07/22 01:38:18;;;;;;;10.13;5.75;;;;;;;;;;5100416;28;20016;-85
2022/07/22 01:40:44;;;;;;;9.10;4.97;;;;;;;;;;5098780;28;20043;-85
2022/07/22 01:43:11;;;;;;;13.27;5.45;;;;;;;;;;5100107;28;20020;-84
2022/07/22 01:45:37;;;;;;;11.55;4.53;;;;;;;;;;5099976;28;20028;-84
2022/07/22 01:48:03;;;;;;;12.38;4.97;;;;;;;;;;5099872;28;20144;-84
2022/07/22 01:50:29;;;;;;;9.68;4.65;;;;;;;;;;5099575;28;20111;-84
2022/07/22 01:52:56;;;;;;;12.15;5.05;;;;;;;;;;5099727;28;20425;-84
2022/07/22 01:55:22;;;;;;;12.05;4.72;;;;;;;;;;5099737;28;20027;-85
2022/07/22 01:57:48;;;;;;;8.75;4.90;;;;;;;;;;5099442;28;20037;-85
2022/07/22 02:00:14;;;;;;;6.93;4.35;;;;;;;;;;5099900;28;20104;-84
2022/07/22 02:02:40;;;;;;;7.18;4.38;;;;;;;;;;5098300;28;20059;-85
2022/07/22 02:05:06;;;;;;;10.43;4.70;;;;;;;;;;5098514;28;20024;-85
2022/07/22 02:07:33;;;;;;;10.95;4.68;;;;;;;;;;5099859;28;20024;-85
2022/07/22 02:09:59;;;;;;;12.40;4.78;;;;;;;;;;5099584;28;20048;-84
2022/07/22 02:12:25;;;;;;;9.02;4.78;;;;;;;;;;5099383;28;20020;-85
2022/07/22 02:14:51;;;;;;;9.20;4.75;;;;;;;;;;5099171;28;20398;-84
2022/07/22 02:17:17;;;;;;;7.28;4.63;;;;;;;;;;5099635;28;20386;-84
2022/07/22 02:19:43;;;;;;;10.75;5.00;;;;;;;;;;5099088;28;20031;-84
2022/07/22 02:22:10;;;;;;;11.48;5.88;;;;;;;;;;5098311;28;20032;-84
2022/07/22 02:24:36;;;;;;;12.40;5.88;;;;;;;;;;5099269;28;20086;-84
2022/07/22 02:27:03;;;;;;;12.93;6.35;;;;;;;;;;5099200;28;20070;-84
2022/07/22 02:29:29;;;;;;;14.10;5.90;;;;;;;;;;5099285;28;20024;-84
2022/07/22 02:31:56;;;;;;;12.90;5.80;;;;;;;;;;5099025;28;20020;-83
2022/07/22 02:34:22;;;;;;;13.63;5.88;;;;;;;;;;5097878;28;20020;-84
2022/07/22 02:36:48;;;;;;;11.18;5.65;;;;;;;;;;5099316;28;20034;-84
2022/07/22 02:39:14;;;;;;;15.55;6.45;;;;;;;;;;5098739;28;20016;-84
2022/07/22 02:41:40;;;;;;;18.35;6.78;;;;;;;;;;5080828;28;20487;-84
2022/07/22 02:44:06;;;;;;;14.10;6.30;;;;;;;;;;5098777;28;20033;-83
2022/07/22 02:46:32;;;;;;;12.20;6.10;;;;;;;;;;5098501;28;20028;-83
2022/07/22 02:48:58;;;;;;;14.13;6.40;;;;;;;;;;5098585;28;20024;-83
2022/07/22 02:51:24;;;;;;;13.65;5.72;;;;;;;;;;5098514;28;20058;-83
2022/07/22 02:53:50;;;;;;;20.23;6.18;;;;;;;;;;5098723;28;20055;-83
2022/07/22 02:56:16;;;;;;;15.90;6.13;;;;;;;;;;5097344;28;20020;-84
2022/07/22 02:58:43;;;;;;;12.60;6.28;;;;;;;;;;5098431;28;20028;-84
2022/07/22 03:01:09;;;;;;;15.25;6.82;;;;;;;;;;5097428;28;20025;-84
2022/07/22 03:03:35;;;;;;;17.35;6.18;;;;;;;;;;5097123;28;20436;-84
2022/07/22 03:06:01;;;;;;;15.30;6.35;;;;;;;;;;5098332;28;20028;-83
2022/07/22 03:08:27;;;;;;;10.55;5.18;;;;;;;;;;5098546;28;20103;-83
2022/07/22 03:10:53;;;;;;;13.55;5.60;;;;;;;;;;5097214;28;20464;-84
2022/07/22 03:13:19;;;;;;;12.68;5.07;;;;;;;;;;5096286;28;20069;-83
2022/07/22 03:15:45;;;;;;;9.98;4.88;;;;;;;;;;5092085;28;20028;-82
2022/07/22 03:18:11;;;;;;;10.18;4.95;;;;;;;;;;5081702;28;20081;-83
2022/07/22 03:20:37;;;;;;;15.95;5.22;;;;;;;;;;5080089;28;20101;-83
2022/07/22 03:23:03;;;;;;;17.20;5.57;;;;;;;;;;5098120;28;20026;-83
2022/07/22 03:25:32;;;;;;;13.98;4.93;;;;;;;;;;5098058;28;20032;-83
2022/07/22 03:27:58;;;;;;;7.03;4.68;;;;;;;;;;5097133;28;20111;-83
2022/07/22 03:30:24;;;;;;;13.05;4.70;;;;;;;;;;5081259;28;20024;-83
2022/07/22 03:32:50;;;;;;;12.30;5.38;;;;;;;;;;5097529;28;20341;-83
2022/07/22 03:35:16;;;;;;;10.95;4.95;;;;;;;;;;5093693;28;20020;-84
2022/07/22 03:37:43;;;;;;;10.65;4.95;;;;;;;;;;5085628;28;20028;-84
2022/07/22 03:40:09;;;;;;;12.52;4.88;;;;;;;;;;5094777;28;20317;-84
2022/07/22 03:42:35;;;;;;;7.93;4.13;;;;;;;;;;5097541;28;20099;-84
2022/07/22 03:45:01;;;;;;;11.45;4.55;;;;;;;;;;5094882;28;20051;-84
2022/07/22 03:47:28;;;;;;;12.05;4.80;;;;;;;;;;5087506;28;20052;-84
2022/07/22 03:50:10;;;;;;;10.60;4.72;;;;;;;;;;5078483;28;20020;-84
2022/07/22 03:52:36;;;;;;;12.45;5.13;;;;;;;;;;5077170;28;20446;-83
2022/07/22 03:55:02;;;;;;;13.63;4.90;;;;;;;;;;5082104;28;20111;-84
2022/07/22 03:57:29;;;;;;;10.18;4.25;;;;;;;;;;5077748;28;20360;-84
2022/07/22 03:59:55;;;;;;;14.80;5.40;;;;;;;;;;5077487;28;20021;-84
2022/07/22 04:02:21;;;;;;;11.15;4.63;;;;;;;;;;5095963;28;20432;-83
2022/07/22 04:07:51;;;;;;;29.30;5.45;;;;;;;;;;5094074;28;20054;-83
2022/07/22 04:10:17;;;;;;;11.45;4.63;;;;;;;;;;5088473;28;20315;-83
2022/07/22 04:12:43;;;;;;;11.77;4.43;;;;;;;;;;5085682;28;20028;-82
2022/07/22 04:15:09;;;;;;;21.52;6.75;;;;;;;;;;5079414;28;20021;-82
2022/07/22 04:17:35;;;;;;;12.68;5.55;;;;;;;;;;5094347;28;20402;-78
2022/07/22 04:20:02;;;;;;;16.88;5.65;;;;;;;;;;5096016;28;20054;-78
2022/07/22 04:22:28;;;;;;;17.52;5.50;;;;;;;;;;5097124;28;20032;-79
2022/07/22 04:24:54;;;;;;;20.80;6.32;;;;;;;;;;5098284;28;20209;-78
2022/07/22 04:27:20;;;;;;;16.23;5.00;;;;;;;;;;5101222;28;20027;-78
2022/07/22 04:29:46;;;;;;;10.10;5.15;;;;;;;;;;5101280;28;20031;-78
2022/07/22 04:32:12;;;;;;;12.82;4.93;;;;;;;;;;5101328;28;20024;-78
2022/07/22 04:34:38;;;;;;;16.70;5.15;;;;;;;;;;5100925;28;20395;-78
2022/07/22 04:37:04;;;;;;;8.05;4.50;;;;;;;;;;5100881;28;20020;-78
2022/07/22 04:39:30;;;;;;;10.00;4.15;;;;;;;;;;5100954;28;20024;-78
2022/07/22 04:41:56;;;;;;;9.60;4.10;;;;;;;;;;5100738;28;20017;-78
2022/07/22 04:44:22;;;;;;;8.95;4.53;;;;;;;;;;5100776;28;20028;-78
2022/07/22 04:46:48;;;;;;;7.65;4.20;;;;;;;;;;5099509;28;20114;-78
2022/07/22 04:49:14;;;;;;;8.82;3.55;;;;;;;;;;5100626;28;20384;-78
2022/07/22 04:51:40;;;;;;;12.68;4.10;;;;;;;;;;5100647;28;20056;-78
2022/07/22 04:54:06;;;;;;;10.05;4.15;;;;;;;;;;5100359;28;20310;-78
2022/07/22 04:56:32;;;;;;;8.15;3.72;;;;;;;;;;5100620;28;20025;-78
2022/07/22 04:58:58;;;;;;;13.80;3.78;;;;;;;;;;5100459;28;20024;-78
2022/07/22 05:01:25;;;;;;;9.15;3.40;;;;;;;;;;5099299;28;20028;-78
2022/07/22 05:03:51;;;;;;;10.35;3.58;;;;;;;;;;5100249;28;20035;-78
2022/07/22 05:06:18;;;;;;;11.38;4.20;;;;;;;;;;5100174;28;20026;-78
2022/07/22 05:08:44;;;;;;;9.88;3.97;;;;;;;;;;5100470;28;20024;-78
2022/07/22 05:11:10;;;;;;;8.13;3.67;;;;;;;;;;5100216;28;20059;-78
2022/07/22 05:13:36;;;;;;;8.60;3.40;;;;;;;;;;5099945;28;20093;-78
2022/07/22 05:16:03;;;;;;;5.75;3.33;;;;;;;;;;5099878;28;20030;-78
2022/07/22 05:18:29;;;;;;;9.63;3.28;;;;;;;;;;5100146;28;20023;-78
2022/07/22 05:20:56;;;;;;;7.07;3.75;;;;;;;;;;5100236;28;20028;-79
2022/07/22 05:23:21;;;;;;;6.75;3.08;;;;;;;;;;5100158;28;20020;-79
2022/07/22 05:25:48;;;;;;;12.82;3.38;;;;;;;;;;5100027;28;20402;-78
2022/07/22 05:28:14;;;;;;;7.25;3.40;;;;;;;;;;5098890;28;20028;-78
2022/07/22 05:30:40;;;;;;;8.20;3.35;;;;;;;;;;5099719;28;20115;-78
2022/07/22 05:33:06;;;;;;;4.32;3.05;;;;;;;;;;5099805;28;20060;-78
2022/07/22 05:35:32;;;;;;;12.00;3.20;;;;;;;;;;5099833;28;20016;-78
2022/07/22 05:37:58;;;;;;;7.80;3.10;;;;;;;;;;5098994;28;20020;-78
2022/07/22 05:40:24;;;;;;;8.15;2.92;;;;;;;;;;5099796;28;20073;-78
2022/07/22 05:42:50;;;;;;;4.38;2.63;;;;;;;;;;5099765;28;20107;-78
2022/07/22 05:45:16;;;;;;;5.45;3.17;;;;;;;;;;5099237;28;20085;-78
2022/07/22 05:47:42;;;;;;;10.60;2.90;;;;;;;;;;5099789;28;20031;-79
2022/07/22 05:50:08;;;;;;;5.82;3.10;;;;;;;;;;5099684;28;20022;-78
2022/07/22 05:52:38;;;;;;;7.90;2.88;;;;;;;;;;5098961;28;20086;-79
2022/07/22 05:55:04;;;;;;;6.55;3.17;;;;;;;;;;5099489;28;20056;-78
2022/07/22 05:57:30;;;;;;;6.47;3.20;;;;;;;;;;5099503;28;20024;-78
2022/07/22 05:59:56;;;;;;;6.05;3.85;;;;;;;;;;5098374;28;20111;-78
2022/07/22 06:02:22;;;;;;;9.75;3.33;;;;;;;;;;5098142;28;20067;-79
2022/07/22 06:04:48;;;;;;;4.82;2.97;;;;;;;;;;5099457;28;20063;-79
2022/07/22 06:07:14;;;;;;;7.03;3.30;;;;;;;;;;5099385;28;20020;-79
2022/07/22 06:09:40;;;;;;;5.43;2.95;;;;;;;;;;5099233;28;20032;-79
2022/07/22 06:12:07;;;;;;;4.15;2.95;;;;;;;;;;5099245;28;20356;-79
2022/07/22 06:14:33;;;;;;;7.72;3.13;;;;;;;;;;5098837;28;20050;-79
2022/07/22 06:16:59;;;;;;;8.25;3.03;;;;;;;;;;5099237;28;20091;-79
2022/07/22 06:19:25;;;;;;;9.20;3.38;;;;;;;;;;5097036;28;20418;-79
2022/07/22 06:21:51;;;;;;;6.47;3.55;;;;;;;;;;5094904;28;20039;-79
2022/07/22 06:24:17;;;;;;;8.57;3.30;;;;;;;;;;5095486;28;20020;-78
2022/07/22 06:26:44;;;;;;;6.70;3.30;;;;;;;;;;5098996;28;20107;-79
2022/07/22 06:29:10;;;;;;;9.43;3.00;;;;;;;;;;5098835;28;20032;-79
2022/07/22 06:31:36;;;;;;;6.13;2.88;;;;;;;;;;5098747;28;20024;-79
2022/07/22 06:34:05;;;;;;;7.35;3.47;;;;;;;;;;5098639;28;20522;-79
2022/07/22 06:36:34;;;;;;;15.38;3.33;;;;;;;;;;5098630;28;20421;-78
2022/07/22 06:39:00;;;;;;;10.40;3.15;;;;;;;;;;5098883;28;20107;-79
2022/07/22 06:41:27;;;;;;;6.40;3.20;;;;;;;;;;5098740;28;20028;-79
2022/07/22 06:43:53;;;;;;;9.50;3.67;;;;;;;;;;5098588;28;20024;-78
2022/07/22 06:46:19;;;;;;;10.38;3.22;;;;;;;;;;5098450;28;20020;-79
2022/07/22 06:48:45;;;;;;;5.43;3.20;;;;;;;;;;5097414;28;20039;-79
2022/07/22 06:51:11;;;;;;;8.20;3.75;;;;;;;;;;5098050;28;20093;-79
2022/07/22 06:53:37;;;;;;;7.65;3.45;;;;;;;;;;5098192;28;20024;-79
2022/07/22 06:56:03;;;;;;;8.63;3.85;;;;;;;;;;5098327;28;20089;-79
2022/07/22 06:58:30;;;;;;;10.40;3.30;;;;;;;;;;5098304;28;20031;-79
2022/07/22 07:00:56;;;;;;;7.15;3.70;;;;;;;;;;5098195;28;20410;-79
2022/07/22 07:03:22;;;;;;;10.48;3.40;;;;;;;;;;5098120;28;20031;-79
2022/07/22 07:05:48;;;;;;;8.45;3.15;;;;;;;;;;5098352;28;20031;-79
2022/07/22 07:08:14;;;;;;;8.25;3.70;;;;;;;;;;5098098;28;20020;-79
2022/07/22 07:10:41;;;;;;;5.05;3.00;;;;;;;;;;5097990;28;20060;-79
2022/07/22 07:13:07;;;;;;;7.20;2.83;;;;;;;;;;5097983;28;20103;-78
2022/07/22 07:15:33;;;;;;;10.45;2.88;;;;;;;;;;5097979;28;20024;-79
2022/07/22 07:17:59;;;;;;;7.45;3.20;;;;;;;;;;5097768;28;20016;-79
2022/07/22 07:20:25;;;;;;;5.00;3.05;;;;;;;;;;5096742;28;20100;-79
2022/07/22 07:22:51;;;;;;;5.82;3.10;;;;;;;;;;5097803;28;20020;-79
2022/07/22 07:25:17;;;;;;;6.38;3.10;;;;;;;;;;5097888;28;20020;-79
2022/07/22 07:27:45;;;;;;;4.80;2.80;;;;;;;;;;5097876;28;20025;-78
2022/07/22 07:30:11;;;;;;;6.97;3.00;;;;;;;;;;5097708;28;20140;-79
2022/07/22 07:32:38;;;;;;;7.72;2.92;;;;;;;;;;5097504;28;20021;-79
2022/07/22 07:35:05;;;;;;;6.97;3.15;;;;;;;;;;5097685;28;20024;-79
2022/07/22 07:37:31;;;;;;;7.95;2.85;;;;;;;;;;5097748;28;20031;-78
2022/07/22 07:39:57;;;;;;;5.20;2.70;;;;;;;;;;5097559;28;20016;-79
2022/07/22 07:42:23;;;;;;;10.60;2.65;;;;;;;;;;5096363;28;20032;-79
2022/07/22 07:44:49;;;;;;;10.88;3.80;;;;;;;;;;5097629;28;20043;-79
2022/07/22 07:47:18;;;;;;;10.25;3.30;;;;;;;;;;5096411;28;20055;-78
2022/07/22 07:49:45;;;;;;;9.27;3.22;;;;;;;;;;5097255;28;20107;-79
2022/07/22 07:52:12;;;;;;;10.32;4.22;;;;;;;;;;5097155;28;20044;-79
2022/07/22 07:54:39;;;;;;;8.05;3.75;;;;;;;;;;5097377;28;20024;-79
2022/07/22 07:57:05;;;;;;;10.73;3.60;;;;;;;;;;5096268;28;20119;-79
2022/07/22 07:59:32;;;;;;;11.65;3.65;;;;;;;;;;5096845;28;20287;-79
2022/07/22 08:01:58;;;;;;;12.73;3.10;;;;;;;;;;5096214;28;20021;-79
2022/07/22 08:04:24;;;;;;;7.95;3.20;;;;;;;;;;5097129;28;20020;-79
2022/07/22 08:06:50;;;;;;;7.22;2.75;;;;;;;;;;5097398;28;20077;-79
2022/07/22 08:09:16;;;;;;;8.80;2.92;;;;;;;;;;5097168;28;20028;-79
2022/07/22 08:11:42;;;;;;;5.78;2.75;;;;;;;;;;5097276;28;20027;-78
2022/07/22 08:14:08;;;;;;;7.32;2.72;;;;;;;;;;5096874;28;20061;-79
2022/07/22 08:16:34;;;;;;;5.85;2.70;;;;;;;;;;5096899;28;20025;-79
2022/07/22 08:19:00;;;;;;;7.70;2.70;;;;;;;;;;5097058;28;20028;-79
2022/07/22 08:21:26;;;;;;;5.35;2.72;;;;;;;;;;5097103;28;20060;-79
2022/07/22 08:23:52;;;;;;;8.93;2.90;;;;;;;;;;5096970;28;20021;-78
2022/07/22 08:26:19;;;;;;;5.90;2.95;;;;;;;;;;5096982;28;20416;-79
2022/07/22 08:28:45;;;;;;;6.93;2.63;;;;;;;;;;5096728;28;20115;-79
2022/07/22 08:31:11;;;;;;;9.75;2.60;;;;;;;;;;5095789;28;20036;-79
2022/07/22 08:33:37;;;;;;;8.18;2.60;;;;;;;;;;5096823;28;20028;-79
2022/07/22 08:36:04;;;;;;;5.20;2.40;;;;;;;;;;5096805;28;20390;-79
2022/07/22 08:38:30;;;;;;;4.18;2.30;;;;;;;;;;5097013;28;20032;-79
2022/07/22 08:40:56;;;;;;;4.53;2.67;;;;;;;;;;5096860;28;20029;-79
2022/07/22 08:43:23;;;;;;;3.90;2.42;;;;;;;;;;5096869;28;20028;-79
2022/07/22 08:45:49;;;;;;;10.35;3.10;;;;;;;;;;5096775;28;20035;-79
2022/07/22 08:48:16;;;;;;;6.30;3.63;;;;;;;;;;5096710;28;20334;-79
2022/07/22 08:50:42;;;;;;;8.38;2.10;;;;;;;;;;5095303;28;20483;-78
2022/07/22 08:53:11;;;;;;;2.75;1.73;;;;;;;;;;5097071;28;20028;-78
2022/07/22 08:55:44;;;;;;;6.13;2.08;;;;;;;;;;5096824;28;20020;-78
2022/07/22 08:58:11;;;;;;;5.85;3.00;;;;;;;;;;5095610;28;20494;-78
2022/07/22 09:00:37;;;;;;;8.20;3.72;;;;;;;;;;5096831;28;20028;-78
2022/07/22 09:03:17;;;;;;;5.88;2.45;;;;;;;;;;5096601;28;20020;-78
2022/07/22 09:05:43;;;;;;;6.03;1.80;;;;;;;;;;5096818;28;20030;-78
2022/07/22 09:08:11;;;;;;;9.63;2.47;;;;;;;;;;5096720;28;20024;-78
2022/07/22 09:10:37;;;;;;;5.10;2.17;;;;;;;;;;5096825;28;20029;-78
2022/07/22 09:13:07;;;;;;;8.25;2.38;;;;;;;;;;5099691;28;20030;-78
2022/07/22 09:15:54;;;;;;;6.63;2.30;;;;;;;;;;5100300;28;20017;-78
2022/07/22 09:18:20;;;;;;;6.90;2.22;;;;;;;;;;5100370;28;20097;-78
2022/07/22 09:20:48;;;;;;;4.85;2.28;;;;;;;;;;5099952;28;20024;-78
2022/07/22 09:23:22;;;;;;;6.10;2.50;;;;;;;;;;5100068;28;20048;-78
2022/07/22 09:25:48;;;;;;;4.18;2.20;;;;;;;;;;5100371;28;20039;-78
2022/07/22 09:28:17;;;;;;;4.88;2.20;;;;;;;;;;5100048;28;20433;-78
2022/07/22 09:30:52;;;;;;;5.97;2.15;;;;;;;;;;5099924;28;20099;-78
2022/07/22 09:33:18;;;;;;;9.65;2.38;;;;;;;;;;5099781;28;20295;-78
2022/07/22 09:35:44;;;;;;;4.80;2.03;;;;;;;;;;5100026;28;20040;-78
2022/07/22 09:38:11;;;;;;;4.13;1.88;;;;;;;;;;5099886;28;20016;-78
2022/07/22 09:40:39;;;;;;;5.82;1.85;;;;;;;;;;5099723;28;20016;-78
2022/07/22 09:43:11;;;;;;;5.15;1.95;;;;;;;;;;5099846;28;20016;-78
2022/07/22 09:45:44;;;;;;;6.63;1.95;;;;;;;;;;5099786;28;20028;-78
2022/07/22 09:48:10;;;;;;;6.13;1.73;;;;;;;;;;5099578;28;20488;-78
2022/07/22 09:50:36;;;;;;;8.25;2.58;;;;;;;;;;5099442;28;20059;-78
2022/07/22 09:53:02;;;;;;;2.92;2.13;;;;;;;;;;5099496;28;20110;-78
2022/07/22 09:55:29;;;;;;;3.88;1.50;;;;;;;;;;5099412;28;20048;-78
2022/07/22 09:57:56;;;;;;;2.83;1.75;;;;;;;;;;5099581;28;20042;-78
2022/07/22 10:00:24;;;;;;;8.85;1.98;;;;;;;;;;5099393;28;20031;-78
2022/07/22 10:02:52;;;;;;;4.20;1.90;;;;;;;;;;5099353;28;20158;-78
2022/07/22 10:05:20;;;;;;;2.95;1.55;;;;;;;;;;5099263;28;20169;-78
2022/07/22 10:07:46;;;;;;;5.53;1.58;;;;;;;;;;5098123;28;20108;-78
2022/07/22 10:10:14;;;;;;;4.05;1.80;;;;;;;;;;5099080;28;20028;-78
2022/07/22 10:12:41;;;;;;;4.68;1.65;;;;;;;;;;5099532;28;20035;-79
2022/07/22 10:15:08;;;;;;;4.10;1.75;;;;;;;;;;5098923;28;20060;-78
2022/07/22 10:17:35;;;;;;;4.53;1.95;;;;;;;;;;5099061;28;20307;-78
2022/07/22 10:20:01;;;;;;;4.88;1.60;;;;;;;;;;5099077;28;20028;-78
2022/07/22 10:22:41;;;;;;;5.05;1.90;;;;;;;;;;5098475;28;20040;-78
2022/07/22 10:25:07;;;;;;;5.95;1.90;;;;;;;;;;5099250;28;20032;-78
2022/07/22 10:27:50;;;;;;;3.47;1.50;;;;;;;;;;5097840;28;20026;-78
2022/07/22 10:30:21;;;;;;;2.90;1.58;;;;;;;;;;5098657;28;20333;-78
2022/07/22 10:33:02;;;;;;;3.60;1.58;;;;;;;;;;5099069;28;20020;-78
2022/07/22 10:35:28;;;;;;;5.03;1.70;;;;;;;;;;5098657;28;20032;-78
2022/07/22 10:37:55;;;;;;;2.63;1.60;;;;;;;;;;5098841;28;20039;-78
2022/07/22 10:40:24;;;;;;;3.92;1.38;;;;;;;;;;5098609;28;20024;-78
2022/07/22 10:43:08;;;;;;;5.10;1.50;;;;;;;;;;5098713;28;20028;-78
2022/07/22 10:45:36;;;;;;;4.45;1.60;;;;;;;;;;5098444;28;20401;-78
2022/07/22 10:48:08;;;;;;;4.63;1.65;;;;;;;;;;5098544;28;20032;-78
2022/07/22 10:50:37;;;;;;;7.95;1.60;;;;;;;;;;5098204;28;20028;-78
2022/07/22 10:53:04;;;;;;;2.10;1.40;;;;;;;;;;5098204;28;20388;-78
2022/07/22 10:55:31;;;;;;;3.70;1.30;;;;;;;;;;5098500;28;20028;-78
2022/07/22 10:57:57;;;;;;;2.67;1.70;;;;;;;;;;5098453;28;20052;-79
2022/07/22 11:00:23;;;;;;;4.35;1.70;;;;;;;;;;5098189;28;20020;-78
2022/07/22 11:02:49;;;;;;;2.75;1.60;;;;;;;;;;5098190;28;20024;-79
2022/07/22 11:05:15;;;;;;;4.28;1.60;;;;;;;;;;5098284;28;20024;-79
2022/07/22 11:07:45;;;;;;;4.25;1.67;;;;;;;;;;5098260;28;20035;-79
2022/07/22 11:10:12;;;;;;;2.17;1.50;;;;;;;;;;5098002;28;20036;-79
2022/07/22 11:12:38;;;;;;;4.80;1.65;;;;;;;;;;5098179;28;20103;-79
2022/07/22 11:15:08;;;;;;;3.50;1.63;;;;;;;;;;5097953;28;20104;-79
2022/07/22 11:17:35;;;;;;;1.80;1.65;;;;;;;;;;5096662;28;20383;-79
2022/07/22 11:20:02;;;;;;;3.80;1.48;;;;;;;;;;5097975;28;20046;-79
2022/07/22 11:22:28;;;;;;;6.00;1.60;;;;;;;;;;5093535;28;20017;-79
2022/07/22 11:24:54;;;;;;;3.75;1.50;;;;;;;;;;5089871;28;20051;-79
2022/07/22 11:27:25;;;;;;;5.53;1.83;;;;;;;;;;5077512;28;20024;-78
2022/07/22 11:29:52;;;;;;;3.75;1.58;;;;;;;;;;5076293;28;20036;-78
2022/07/22 11:32:19;;;;;;;3.95;1.60;;;;;;;;;;5077380;28;20111;-78
2022/07/22 11:34:46;;;;;;;4.80;2.08;;;;;;;;;;5076542;28;20024;-79
2022/07/22 11:37:25;;;;;;;8.18;4.72;;;;;;;;;;5077595;28;20028;-78
2022/07/22 11:39:52;;;;;;;5.13;3.10;;;;;;;;;;5077300;28;20023;-79
2022/07/22 11:42:18;;;;;;;7.60;2.20;;;;;;;;;;5077294;28;20060;-78
2022/07/22 11:44:44;;;;;;;3.10;1.98;;;;;;;;;;5077159;28;20025;-78
2022/07/22 11:47:12;;;;;;;5.93;3.17;;;;;;;;;;5077391;28;20311;-79
2022/07/22 11:49:39;;;;;;;3.13;1.75;;;;;;;;;;5077147;28;20103;-79
2022/07/22 11:52:07;;;;;;;5.40;1.80;;;;;;;;;;5077022;28;20060;-79
2022/07/22 11:54:33;;;;;;;5.63;1.80;;;;;;;;;;5077093;28;20052;-78
2022/07/22 11:57:02;;;;;;;6.47;2.10;;;;;;;;;;5076217;28;20453;-79
2022/07/22 11:59:28;;;;;;;2.10;1.40;;;;;;;;;;5077028;28;20111;-79
2022/07/22 12:01:54;;;;;;;3.38;1.55;;;;;;;;;;5077252;28;20044;-79
2022/07/22 12:04:22;;;;;;;5.07;1.58;;;;;;;;;;5077202;28;20025;-79
2022/07/22 12:06:49;;;;;;;8.75;1.92;;;;;;;;;;5077091;28;20033;-79
2022/07/22 12:09:22;;;;;;;5.30;2.00;;;;;;;;;;5076954;28;20066;-79
2022/07/22 12:11:50;;;;;;;5.32;2.00;;;;;;;;;;5076899;28;20021;-79
2022/07/22 12:14:17;;;;;;;5.13;1.77;;;;;;;;;;5076834;28;20035;-79
2022/07/22 12:16:44;;;;;;;3.88;1.70;;;;;;;;;;5077093;28;20314;-79
2022/07/22 12:19:11;;;;;;;6.43;1.95;;;;;;;;;;5076745;28;20028;-79
2022/07/22 12:21:51;;;;;;;4.78;2.00;;;;;;;;;;5076847;28;20025;-79
2022/07/22 12:24:25;;;;;;;4.60;1.75;;;;;;;;;;5076831;28;20381;-78
2022/07/22 12:26:51;;;;;;;5.40;1.98;;;;;;;;;;5080334;28;20036;-78
2022/07/22 12:29:24;;;;;;;4.32;1.90;;;;;;;;;;5077985;28;20463;-79
2022/07/22 12:31:52;;;;;;;4.63;1.60;;;;;;;;;;5080638;28;20067;-79
2022/07/22 12:34:29;;;;;;;5.85;1.80;;;;;;;;;;5096820;28;20024;-79
2022/07/22 12:36:55;;;;;;;4.20;1.70;;;;;;;;;;5096882;28;20021;-78
2022/07/22 12:39:21;;;;;;;6.10;2.47;;;;;;;;;;5096978;28;20409;-79
2022/07/22 12:41:51;;;;;;;4.05;1.92;;;;;;;;;;5095541;28;20044;-79
2022/07/22 12:44:19;;;;;;;5.13;1.75;;;;;;;;;;5097121;28;20020;-78
2022/07/22 12:46:46;;;;;;;4.65;1.60;;;;;;;;;;5099424;28;20036;-78
2022/07/22 12:49:12;;;;;;;5.93;1.98;;;;;;;;;;5099643;28;20043;-78
2022/07/22 12:51:38;;;;;;;4.72;1.80;;;;;;;;;;5098835;28;20040;-78
2022/07/22 12:54:04;;;;;;;6.97;1.83;;;;;;;;;;5093491;28;20440;-78
2022/07/22 12:56:33;;;;;;;6.93;2.20;;;;;;;;;;5100643;28;20032;-78
2022/07/22 12:58:59;;;;;;;7.43;1.90;;;;;;;;;;5100779;28;20016;-78
2022/07/22 13:01:25;;;;;;;3.45;1.90;;;;;;;;;;5100614;28;20338;-79
2022/07/22 13:03:51;;;;;;;4.60;1.85;;;;;;;;;;5099176;28;20036;-79
2022/07/22 13:06:18;;;;;;;3.65;1.80;;;;;;;;;;5100446;28;20039;-78
2022/07/22 13:08:45;;;;;;;7.60;1.92;;;;;;;;;;5100321;28;20103;-78
2022/07/22 13:11:11;;;;;;;4.15;1.75;;;;;;;;;;5100275;28;20069;-79
2022/07/22 13:13:37;;;;;;;7.22;1.85;;;;;;;;;;5099164;28;20099;-79
2022/07/22 13:16:03;;;;;;;8.82;2.05;;;;;;;;;;5100325;28;20101;-79
2022/07/22 13:18:29;;;;;;;5.90;1.90;;;;;;;;;;5099098;28;20036;-79
2022/07/22 13:20:55;;;;;;;5.70;2.00;;;;;;;;;;5100270;28;20394;-79
2022/07/22 13:23:22;;;;;;;9.50;2.10;;;;;;;;;;5100052;28;20063;-79
2022/07/22 13:25:48;;;;;;;3.03;1.90;;;;;;;;;;5090424;28;20236;-79
2022/07/22 13:28:14;;;;;;;3.25;1.90;;;;;;;;;;5090344;28;20016;-79
2022/07/22 13:30:40;;;;;;;7.30;2.42;;;;;;;;;;5095725;28;20052;-78
2022/07/22 13:33:06;;;;;;;4.65;1.75;;;;;;;;;;5085477;28;20024;-79
2022/07/22 13:35:32;;;;;;;7.65;1.80;;;;;;;;;;5079705;28;20501;-78
2022/07/22 13:37:59;;;;;;;4.40;1.83;;;;;;;;;;5079550;28;20090;-78
2022/07/22 13:40:25;;;;;;;6.43;1.63;;;;;;;;;;5079627;28;20031;-78
2022/07/22 13:42:51;;;;;;;4.13;1.90;;;;;;;;;;5079746;28;20021;-79
2022/07/22 13:45:17;;;;;;;3.70;2.20;;;;;;;;;;5078414;28;20036;-79
2022/07/22 13:47:43;;;;;;;6.90;2.08;;;;;;;;;;5079181;28;20107;-79
2022/07/22 13:50:09;;;;;;;6.32;2.47;;;;;;;;;;5079313;28;20461;-79
2022/07/22 13:52:36;;;;;;;5.35;2.00;;;;;;;;;;5078234;28;20056;-78
2022/07/22 13:55:02;;;;;;;5.68;2.30;;;;;;;;;;5078043;28;20079;-79
2022/07/22 13:57:28;;;;;;;7.47;2.90;;;;;;;;;;5078773;28;20357;-79
2022/07/22 13:59:55;;;;;;;7.50;2.70;;;;;;;;;;5079168;28;20357;-79
2022/07/22 14:02:21;;;;;;;4.95;2.30;;;;;;;;;;5078139;28;20070;-79
2022/07/22 14:04:47;;;;;;;6.30;2.88;;;;;;;;;;5079220;28;20047;-79
2022/07/22 14:07:13;;;;;;;7.13;3.63;;;;;;;;;;5078867;28;20024;-79
2022/07/22 14:09:39;;;;;;;5.13;2.67;;;;;;;;;;5078821;28;20025;-79
2022/07/22 14:12:06;;;;;;;6.47;2.45;;;;;;;;;;5078832;28;20109;-79
2022/07/22 14:14:32;;;;;;;4.25;2.30;;;;;;;;;;5077654;28;20028;-79
2022/07/22 14:16:58;;;;;;;6.80;2.22;;;;;;;;;;5079261;28;20020;-79
2022/07/22 14:19:24;;;;;;;3.33;1.90;;;;;;;;;;5078817;28;20025;-79
2022/07/22 14:21:50;;;;;;;5.43;2.65;;;;;;;;;;5079156;28;20040;-79
2022/07/22 14:24:16;;;;;;;4.35;2.63;;;;;;;;;;5077255;28;20124;-79
2022/07/22 14:26:42;;;;;;;8.15;4.30;;;;;;;;;;5078590;28;20033;-79
2022/07/22 14:29:08;;;;;;;7.97;2.30;;;;;;;;;;5078540;28;20083;-79
2022/07/22 14:31:35;;;;;;;6.50;2.13;;;;;;;;;;5078528;28;20062;-79
2022/07/22 14:34:01;;;;;;;9.20;2.50;;;;;;;;;;5078396;28;20309;-79
2022/07/22 14:36:27;;;;;;;7.10;2.35;;;;;;;;;;5078675;28;20319;-79
2022/07/22 14:38:53;;;;;;;5.15;2.25;;;;;;;;;;5078375;28;20039;-79